This is the latest recevied weather packets stored in our database for station/object K4AGR-13. If no packets are shown the sender has not sent any weather packets the latest 10 day(s).
| Time | Temp. | Humidity | Pressure | Rain* | Wind** | Luminosity | Snow |
|---|---|---|---|---|---|---|---|
| 1777672767 | 16.67° C | 90% | 1012.3 hPa | 0 mm | - | 31 W/m² | - |
| 1777672464 | 16.67° C | 90% | 1012 hPa | 0 mm | - | 62 W/m² | - |
| 1777672160 | 16.67° C | 90% | 1010.9 hPa | 0 mm | - | 98 W/m² | - |
| 1777671855 | 16.67° C | 91% | 1010.9 hPa | 0 mm | - | 119 W/m² | - |
| 1777671551 | 16.67° C | 90% | 1010.9 hPa | 1.78 mm | - | 122 W/m² | - |
| 1777671248 | 16.67° C | 90% | 1011 hPa | 1.78 mm | - | 120 W/m² | - |
| 1777670943 | 16.67° C | 90% | 1011.2 hPa | 0 mm | - | 61 W/m² | - |
| 1777670640 | 16.67° C | 89% | 1011.7 hPa | 0 mm | - | 43 W/m² | - |
| 1777670337 | 17.22° C | 89% | 1011.7 hPa | 0 mm | - | 48 W/m² | - |
| 1777670034 | 17.22° C | 89% | 1011.4 hPa | 0 mm | - | 77 W/m² | - |
| 1777669732 | 17.22° C | 89% | 1011.3 hPa | 0 mm | - | 86 W/m² | - |
| 1777669429 | 17.22° C | 88% | 1011.9 hPa | 0 mm | - | 74 W/m² | - |
| 1777669125 | 17.22° C | 89% | 1011.5 hPa | 0 mm | - | 96 W/m² | - |
| 1777668822 | 17.22° C | 89% | 1011.9 hPa | 0 mm | - | 78 W/m² | - |
| 1777668519 | 17.22° C | 89% | 1011.8 hPa | 0 mm | - | 89 W/m² | - |
| 1777668215 | 17.22° C | 89% | 1011.7 hPa | 0 mm | - | 116 W/m² | - |
| 1777667911 | 17.22° C | 89% | 1011.7 hPa | 0 mm | - | 108 W/m² | - |
| 1777667609 | 17.22° C | 89% | 1012.1 hPa | 0 mm | - | 133 W/m² | - |
| 1777667306 | 17.22° C | 89% | 1011.7 hPa | 1.27 mm | - | 149 W/m² | - |
| 1777667003 | 17.22° C | 88% | 1011.9 hPa | 1.27 mm | - | 139 W/m² | - |
| 1777666700 | 17.22° C | 89% | 1011.9 hPa | 0 mm | - | 135 W/m² | - |
| 1777666397 | 17.22° C | 89% | 1011.9 hPa | 0 mm | - | 153 W/m² | - |
| 1777666093 | 17.22° C | 87% | 1012.3 hPa | 0 mm | - | 162 W/m² | - |
| 1777665790 | 17.22° C | 86% | 1012.5 hPa | 0 mm | - | 110 W/m² | - |
| 1777665488 | 17.22° C | 87% | 1012.7 hPa | 0 mm | - | 96 W/m² | - |
* Rain latest hour (hover to see other rain measurements)
** Current wind speed in m/s (hover to see current wind gust speed)